Dripping Springs' Hourly Summary for Wednesday, March 15, 2017
Hour Temp
(f)
RH
(%)
Solar Rad.
(MJ/m2)
Rainfall
(in)
Wind
(mph)
3/15/2017 12:00 AM 49 93 0 0 0.44
3/15/2017 1:00 AM 47 99 0 0 0.12
3/15/2017 2:00 AM 46 99 0 0 0.05
3/15/2017 3:00 AM 48 99 0 0 0.35
3/15/2017 4:00 AM 48 99 0 0 2.82
3/15/2017 5:00 AM 48 99 0 0 0.87
3/15/2017 6:00 AM 46 99 0 0 0.05
3/15/2017 7:00 AM 46 100 0 0 0.1
3/15/2017 8:00 AM 46 100 0.01 0 0.41
3/15/2017 9:00 AM 49 99 0.38 0 0.66
3/15/2017 10:00 AM 55 99 0.52 0 2.93
3/15/2017 11:00 AM 59 90 1.47 0 5.12
3/15/2017 12:00 PM 61 58 2.55 0 6.27
3/15/2017 1:00 PM 65 43 2.94 0 6.27
3/15/2017 2:00 PM 67 37 3.11 0 6.28
3/15/2017 3:00 PM 69 29 3.02 0 7.16
3/15/2017 4:00 PM 70 36 2.69 0 8.14
3/15/2017 5:00 PM 70 41 2.18 0 7.89
3/15/2017 6:00 PM 70 37 1.05 0 8.2
3/15/2017 7:00 PM 68 45 0.4 0 7.18
3/15/2017 8:00 PM 66 57 0.05 0 5.65
3/15/2017 9:00 PM 64 68 0 0 5.12
3/15/2017 10:00 PM 62 74 0 0 3.38
3/15/2017 11:00 PM 61 83 0 0 4.71
Data Summary 57 74 20.37 0.00 3.76